Khashm El Girba Airport


Codes: HSKG/GBU
Name: Khashm El Girba Airport
City: Khashm El Girba
Country: Sudan
Elevation: 1560 ft.

Photos at Khashm El Girba Airport


   Photos courtesy of SpottingLog. You can add your own sightings and photos by signing up for a free trial today.



No photos found.

Weather at Khashm El Girba Airport


Time (UTC)DescriptionTempratureWindCloud coverageVisibilityPressureHumidity
16-Jun-2024 09:00Broken Clouds36°C9 mph, SW54%10000m1007hPa30%
16-Jun-2024 12:00Broken Clouds37°C7 mph, W58%10000m1006hPa27%
16-Jun-2024 15:00Scattered Clouds39°C7 mph, W41%10000m1004hPa22%
16-Jun-2024 18:00Scattered Clouds38°C4 mph, SW34%10000m1004hPa24%
16-Jun-2024 21:00Overcast Clouds36°C9 mph, SW90%10000m1006hPa30%
17-Jun-2024 00:00Broken Clouds32°C20 mph, SW82%10000m1006hPa45%
17-Jun-2024 03:00Scattered Clouds29°C13 mph, SW27%10000m1008hPa57%
17-Jun-2024 06:00Few Clouds32°C13 mph, SW13%10000m1009hPa47%
17-Jun-2024 09:00Clear Sky37°C13 mph, SW0%10000m1008hPa33%
17-Jun-2024 12:00Clear Sky40°C9 mph, SW0%10000m1005hPa25%
17-Jun-2024 15:00Few Clouds40°C7 mph, SW16%10000m1003hPa22%
17-Jun-2024 18:00Light Rain35°C9 mph, NW36%10000m1006hPa33%
17-Jun-2024 21:00Light Rain27°C31 mph, S100%10000m1007hPa65%
18-Jun-2024 00:00Light Rain28°C16 mph, SW100%10000m1006hPa53%
18-Jun-2024 03:00Overcast Clouds28°C13 mph, S100%10000m1007hPa53%
18-Jun-2024 06:00Overcast Clouds28°C18 mph, S100%10000m1010hPa59%
18-Jun-2024 09:00Broken Clouds34°C13 mph, SW66%10000m1009hPa42%
18-Jun-2024 12:00Overcast Clouds37°C16 mph, SW85%10000m1006hPa32%
18-Jun-2024 15:00Broken Clouds37°C13 mph, SW65%10000m1006hPa29%
18-Jun-2024 18:00Light Rain36°C18 mph, S70%10000m1007hPa31%
18-Jun-2024 21:00Moderate Rain25°C25 mph, W100%10000m1010hPa72%
19-Jun-2024 00:00Light Rain26°C20 mph, S100%10000m1008hPa68%
19-Jun-2024 03:00Overcast Clouds25°C20 mph, S94%10000m1008hPa75%
19-Jun-2024 06:00Overcast Clouds28°C18 mph, S96%10000m1010hPa57%
19-Jun-2024 09:00Overcast Clouds34°C13 mph, S97%10000m1009hPa38%
19-Jun-2024 12:00Broken Clouds37°C11 mph, SW83%10000m1006hPa29%
19-Jun-2024 15:00Few Clouds37°C13 mph, W12%10000m1005hPa29%
19-Jun-2024 18:00Scattered Clouds36°C7 mph, NE38%10000m1008hPa30%
19-Jun-2024 21:00Overcast Clouds28°C16 mph, S100%10000m1008hPa50%
20-Jun-2024 00:00Light Rain27°C11 mph, S97%10000m1009hPa54%
20-Jun-2024 03:00Light Rain26°C13 mph, S98%10000m1010hPa61%
20-Jun-2024 06:00Overcast Clouds29°C16 mph, S94%10000m1010hPa53%
20-Jun-2024 09:00Few Clouds34°C9 mph, S24%10000m1009hPa35%
20-Jun-2024 12:00Few Clouds37°C9 mph, SW18%10000m1007hPa28%
20-Jun-2024 15:00Few Clouds37°C13 mph, W13%10000m1006hPa28%
20-Jun-2024 18:00Clear Sky35°C9 mph, SW10%10000m1007hPa33%
20-Jun-2024 21:00Overcast Clouds33°C13 mph, S85%10000m1008hPa44%
21-Jun-2024 00:00Overcast Clouds30°C13 mph, S93%10000m1008hPa54%
21-Jun-2024 03:00Broken Clouds30°C11 mph, S69%10000m1008hPa56%
21-Jun-2024 06:00Broken Clouds32°C13 mph, S81%10000m1010hPa44%